PWSweather.com
Personal Weather Stations
Station Observations
HELOTES
Helotes Park Terrace, Helotes, TX 78023

Helotes Park TerraceHelotes, TX 78023

Lat: 29.57, Lon: -98.68

Elevation: 1060

Station Type: Ambient Weather WS-1090

Latest ConditionsUpdated 6:40:05 PM CDT Thursday, Mar 26, 2015
Currently Today's Max Today's Min Today's Average
Temperature 66.8°F19.3°C 68.4°F20.2°C 52.9°F11.6°C 62.7°F17.1°C
Dew Point 45.3°F7.4°C 65.3°F18.5°C 44.6°F7.0°C 52.8°F11.6°C
Winds 9.6 mph W15.4 kmh W 18.1 mph 29.1 kmh - 5.9 mph 9.5 kmh
Wind Gusts 9.6 mph15.4 kmh 18.1 mph29.1 kmh - -
Humidity 46% 91% 45% 72%
Pressure 29.98 in1015.2 mb 30.02 in1016.6 mb 29.79 in1008.8 mb -
Precipitation - 0.04 in1.0 mm - -
Hour Temp Dew Point Humidity Winds Wind Gusts Pressure Precip Precip Rate Daily Precip Total
06:40 PM 66.8°F19.3°C 45.3°F7.4°C 46% 9.6 mph W15.4 kmh W 9.6 mph15.4 kmh 29.98 in1015.2 mb 0.00 in0.0 mm 0.00 in0.0 mm 0.04 in1.0 mm
06:35 PM 66.8°F19.3°C 44.6°F7.0°C 45% 6.0 mph W9.7 kmh W 8.5 mph13.7 kmh 29.97 in1014.9 mb 0.00 in0.0 mm 0.00 in0.0 mm 0.04 in1.0 mm
06:30 PM 66.8°F19.3°C 45.3°F7.4°C 46% 2.9 mph WSW4.7 kmh WSW 8.5 mph13.7 kmh 29.97 in1014.9 mb 0.00 in0.0 mm 0.00 in0.0 mm 0.04 in1.0 mm
06:25 PM 67.0°F19.4°C 44.8°F7.1°C 45% 4.5 mph WSW7.2 kmh WSW 4.9 mph7.9 kmh 29.97 in1014.9 mb 0.00 in0.0 mm 0.00 in0.0 mm 0.04 in1.0 mm
06:20 PM 67.0°F19.4°C 44.8°F7.1°C 45% 4.7 mph N7.6 kmh N 4.9 mph7.9 kmh 29.97 in1014.9 mb 0.00 in0.0 mm 0.00 in0.0 mm 0.04 in1.0 mm
06:15 PM 67.1°F19.5°C 45.0°F7.2°C 45% 4.7 mph 7.6 kmh 4.7 mph7.6 kmh 29.97 in1014.9 mb 0.00 in0.0 mm 0.00 in0.0 mm 0.04 in1.0 mm
06:10 PM 67.3°F19.6°C 45.2°F7.3°C 45% 1.9 mph NW3.1 kmh NW 4.7 mph7.6 kmh 29.97 in1014.9 mb 0.00 in0.0 mm 0.00 in0.0 mm 0.04 in1.0 mm
06:05 PM 67.3°F19.6°C 45.2°F7.3°C 45% 4.7 mph 7.6 kmh 5.8 mph9.3 kmh 29.97 in1014.9 mb 0.00 in0.0 mm 0.00 in0.0 mm 0.04 in1.0 mm
06:00 PM 67.5°F19.7°C 45.4°F7.4°C 45% 3.6 mph 5.8 kmh 5.8 mph9.3 kmh 29.97 in1014.9 mb 0.00 in0.0 mm 0.00 in0.0 mm 0.04 in1.0 mm
05:55 PM 67.5°F19.7°C 45.4°F7.4°C 45% 5.8 mph W9.3 kmh W 18.1 mph29.1 kmh 29.97 in1014.9 mb 0.00 in0.0 mm 0.00 in0.0 mm 0.04 in1.0 mm
05:50 PM 67.5°F19.7°C 45.4°F7.4°C 45% 6.4 mph NW10.3 kmh NW 18.1 mph29.1 kmh 29.97 in1014.9 mb 0.00 in0.0 mm 0.00 in0.0 mm 0.04 in1.0 mm
05:45 PM 67.7°F19.8°C 46.1°F7.8°C 46% 18.1 mph 29.1 kmh 18.1 mph29.1 kmh 29.97 in1014.9 mb 0.00 in0.0 mm 0.00 in0.0 mm 0.04 in1.0 mm
05:40 PM 67.5°F19.7°C 45.9°F7.7°C 46% 3.4 mph W5.5 kmh W 8.5 mph13.7 kmh 29.97 in1014.9 mb 0.00 in0.0 mm 0.00 in0.0 mm 0.04 in1.0 mm
05:35 PM 67.5°F19.7°C 45.9°F7.7°C 46% 7.6 mph 12.2 kmh 8.5 mph13.7 kmh 29.97 in1014.9 mb 0.00 in0.0 mm 0.00 in0.0 mm 0.04 in1.0 mm
05:30 PM 67.7°F19.8°C 46.1°F7.8°C 46% 4.9 mph 7.9 kmh 11.4 mph18.3 kmh 29.97 in1014.9 mb 0.00 in0.0 mm 0.00 in0.0 mm 0.04 in1.0 mm
05:25 PM 67.5°F19.7°C 45.9°F7.7°C 46% 9.3 mph N15.0 kmh N 11.4 mph18.3 kmh 29.97 in1014.9 mb 0.00 in0.0 mm 0.00 in0.0 mm 0.04 in1.0 mm
05:20 PM 67.5°F19.7°C 45.4°F7.4°C 45% 7.5 mph N12.1 kmh N 11.4 mph18.3 kmh 29.97 in1014.9 mb 0.00 in0.0 mm 0.00 in0.0 mm 0.04 in1.0 mm
05:15 PM 67.9°F19.9°C 46.3°F7.9°C 46% 7.4 mph WNW11.9 kmh WNW 9.8 mph15.8 kmh 29.97 in1014.9 mb 0.00 in0.0 mm 0.00 in0.0 mm 0.04 in1.0 mm
05:10 PM 68.0°F20.0°C 46.5°F8.1°C 46% 4.9 mph WNW7.9 kmh WNW 11.0 mph17.7 kmh 29.97 in1014.9 mb 0.00 in0.0 mm 0.00 in0.0 mm 0.04 in1.0 mm
05:04 PM 68.0°F20.0°C 46.5°F8.1°C 46% 8.6 mph NW13.8 kmh NW 11.0 mph17.7 kmh 29.98 in1015.2 mb 0.00 in0.0 mm 0.00 in0.0 mm 0.04 in1.0 mm
04:59 PM 67.9°F19.9°C 46.3°F7.9°C 46% 5.9 mph WNW9.5 kmh WNW 9.2 mph14.8 kmh 29.98 in1015.2 mb 0.00 in0.0 mm 0.00 in0.0 mm 0.04 in1.0 mm
04:55 PM 67.9°F19.9°C 46.3°F7.9°C 46% 4.0 mph 6.4 kmh 9.2 mph14.8 kmh 29.97 in1014.9 mb 0.00 in0.0 mm 0.00 in0.0 mm 0.04 in1.0 mm
04:50 PM 67.9°F19.9°C 46.3°F7.9°C 46% 7.7 mph NW12.4 kmh NW 9.2 mph14.8 kmh 29.98 in1015.2 mb 0.00 in0.0 mm 0.00 in0.0 mm 0.04 in1.0 mm
04:44 PM 67.7°F19.8°C 46.1°F7.8°C 46% 4.7 mph NW7.6 kmh NW 6.9 mph11.1 kmh 29.98 in1015.2 mb 0.00 in0.0 mm 0.00 in0.0 mm 0.04 in1.0 mm
04:39 PM 68.0°F20.0°C 46.5°F8.1°C 46% 6.3 mph WSW10.1 kmh WSW 9.4 mph15.1 kmh 29.98 in1015.2 mb 0.00 in0.0 mm 0.00 in0.0 mm 0.04 in1.0 mm
04:34 PM 68.2°F20.1°C 46.5°F8.1°C 46% 7.2 mph W11.6 kmh W 9.4 mph15.1 kmh 29.98 in1015.2 mb 0.00 in0.0 mm 0.00 in0.0 mm 0.04 in1.0 mm
04:29 PM 68.2°F20.1°C 47.8°F8.8°C 48% 7.6 mph NNW12.2 kmh NNW 9.4 mph15.1 kmh 29.98 in1015.2 mb 0.00 in0.0 mm 0.00 in0.0 mm 0.04 in1.0 mm
04:24 PM 68.0°F20.0°C 47.0°F8.3°C 47% 7.4 mph 11.9 kmh 7.4 mph11.9 kmh 29.98 in1015.2 mb 0.00 in0.0 mm 0.00 in0.0 mm 0.04 in1.0 mm
04:19 PM 67.5°F19.7°C 48.3°F9.1°C 50% 5.1 mph NW8.2 kmh NW 5.1 mph8.2 kmh 29.99 in1015.6 mb 0.00 in0.0 mm 0.00 in0.0 mm 0.04 in1.0 mm
04:14 PM 67.3°F19.6°C 48.6°F9.2°C 51% 3.4 mph NE5.5 kmh NE 4.7 mph7.6 kmh 29.99 in1015.6 mb 0.00 in0.0 mm 0.00 in0.0 mm 0.04 in1.0 mm
04:09 PM 67.1°F19.5°C 48.0°F8.9°C 50% 4.5 mph NW7.2 kmh NW 5.4 mph8.7 kmh 29.99 in1015.6 mb 0.00 in0.0 mm 0.00 in0.0 mm 0.04 in1.0 mm
04:04 PM 67.0°F19.4°C 48.3°F9.1°C 51% 4.4 mph N7.1 kmh N 5.4 mph8.7 kmh 29.99 in1015.6 mb 0.00 in0.0 mm 0.00 in0.0 mm 0.04 in1.0 mm
03:59 PM 66.8°F19.3°C 48.2°F9.0°C 51% 4.7 mph NNW7.6 kmh NNW 4.7 mph7.6 kmh 29.99 in1015.6 mb 0.00 in0.0 mm 0.00 in0.0 mm 0.04 in1.0 mm
03:31 PM 64.6°F18.1°C 46.5°F8.1°C 52% 8.1 mph W13.0 kmh W 8.1 mph13.0 kmh 30.00 in1015.9 mb 0.00 in0.0 mm 0.00 in0.0 mm 0.04 in1.0 mm
03:26 PM 64.3°F17.9°C 47.2°F8.4°C 54% 5.5 mph NW8.9 kmh NW 6.5 mph10.5 kmh 30.00 in1015.9 mb 0.00 in0.0 mm 0.00 in0.0 mm 0.04 in1.0 mm
03:21 PM 64.1°F17.8°C 46.5°F8.1°C 53% 5.8 mph NW9.3 kmh NW 9.2 mph14.8 kmh 30.00 in1015.9 mb 0.00 in0.0 mm 0.00 in0.0 mm 0.04 in1.0 mm
03:16 PM 63.4°F17.4°C 46.4°F8.0°C 54% 6.3 mph 10.1 kmh 9.2 mph14.8 kmh 29.99 in1015.6 mb 0.00 in0.0 mm 0.00 in0.0 mm 0.04 in1.0 mm
03:11 PM 63.0°F17.2°C 47.0°F8.3°C 56% 7.2 mph 11.6 kmh 9.2 mph14.8 kmh 29.99 in1015.6 mb 0.00 in0.0 mm 0.00 in0.0 mm 0.04 in1.0 mm
03:06 PM 62.8°F17.1°C 46.8°F8.2°C 56% 6.0 mph SW9.7 kmh SW 7.6 mph12.2 kmh 29.99 in1015.6 mb 0.00 in0.0 mm 0.00 in0.0 mm 0.04 in1.0 mm
03:01 PM 62.5°F16.9°C 47.0°F8.3°C 57% 3.4 mph 5.5 kmh 11.9 mph19.2 kmh 30.00 in1015.9 mb 0.00 in0.0 mm 0.00 in0.0 mm 0.04 in1.0 mm
02:56 PM 62.3°F16.8°C 46.8°F8.2°C 57% 3.6 mph WNW5.8 kmh WNW 11.9 mph19.2 kmh 30.00 in1015.9 mb 0.00 in0.0 mm 0.00 in0.0 mm 0.04 in1.0 mm
02:51 PM 62.3°F16.8°C 46.4°F8.0°C 56% 11.9 mph W19.2 kmh W 11.9 mph19.2 kmh 30.00 in1015.9 mb 0.00 in0.0 mm 0.00 in0.0 mm 0.04 in1.0 mm
02:46 PM 62.3°F16.8°C 45.8°F7.7°C 55% 4.0 mph W6.4 kmh W 9.2 mph14.8 kmh 29.99 in1015.6 mb 0.00 in0.0 mm 0.00 in0.0 mm 0.04 in1.0 mm
02:41 PM 62.6°F17.0°C 46.2°F7.9°C 55% 9.0 mph NW14.5 kmh NW 9.2 mph14.8 kmh 29.99 in1015.6 mb 0.00 in0.0 mm 0.00 in0.0 mm 0.04 in1.0 mm
02:36 PM 63.5°F17.5°C 46.5°F8.1°C 54% 6.9 mph NNE11.1 kmh NNE 11.9 mph19.2 kmh 30.00 in1015.9 mb 0.00 in0.0 mm 0.00 in0.0 mm 0.04 in1.0 mm
02:31 PM 63.7°F17.6°C 46.6°F8.1°C 54% 6.0 mph NNE9.7 kmh NNE 11.9 mph19.2 kmh 30.00 in1015.9 mb 0.00 in0.0 mm 0.00 in0.0 mm 0.04 in1.0 mm
02:26 PM 64.1°F17.8°C 47.0°F8.3°C 54% 7.9 mph WSW12.7 kmh WSW 11.9 mph19.2 kmh 30.01 in1016.3 mb 0.00 in0.0 mm 0.00 in0.0 mm 0.04 in1.0 mm
02:21 PM 63.0°F17.2°C 47.4°F8.6°C 57% 3.8 mph 6.1 kmh 6.9 mph11.1 kmh 30.00 in1015.9 mb 0.00 in0.0 mm 0.00 in0.0 mm 0.04 in1.0 mm
02:16 PM 62.6°F17.0°C 47.2°F8.4°C 57% 5.6 mph N9.0 kmh N 6.9 mph11.1 kmh 29.99 in1015.6 mb 0.00 in0.0 mm 0.00 in0.0 mm 0.04 in1.0 mm
02:11 PM 61.9°F16.6°C 46.0°F7.8°C 56% 6.7 mph N10.8 kmh N 10.7 mph17.2 kmh 29.99 in1015.6 mb 0.00 in0.0 mm 0.00 in0.0 mm 0.04 in1.0 mm
02:06 PM 61.6°F16.4°C 45.7°F7.6°C 56% 6.9 mph NW11.1 kmh NW 10.7 mph17.2 kmh 29.99 in1015.6 mb 0.00 in0.0 mm 0.00 in0.0 mm 0.04 in1.0 mm
02:01 PM 61.9°F16.6°C 46.0°F7.8°C 56% 10.3 mph WNW16.6 kmh WNW 10.3 mph16.6 kmh 29.99 in1015.6 mb 0.00 in0.0 mm 0.00 in0.0 mm 0.04 in1.0 mm
01:56 PM 62.3°F16.8°C 45.8°F7.7°C 55% 8.9 mph WNW14.3 kmh WNW 10.5 mph16.9 kmh 30.00 in1015.9 mb 0.00 in0.0 mm 0.00 in0.0 mm 0.04 in1.0 mm
01:51 PM 62.5°F16.9°C 46.0°F7.8°C 55% 7.6 mph NW12.2 kmh NW 10.5 mph16.9 kmh 30.00 in1015.9 mb 0.00 in0.0 mm 0.00 in0.0 mm 0.04 in1.0 mm
01:46 PM 62.6°F17.0°C 46.6°F8.1°C 56% 9.4 mph NW15.1 kmh NW 10.5 mph16.9 kmh 30.00 in1015.9 mb 0.00 in0.0 mm 0.00 in0.0 mm 0.04 in1.0 mm
01:41 PM 62.6°F17.0°C 47.6°F8.7°C 58% 4.8 mph NE7.7 kmh NE 5.6 mph9.0 kmh 30.00 in1015.9 mb 0.00 in0.0 mm 0.00 in0.0 mm 0.04 in1.0 mm
01:36 PM 63.0°F17.2°C 48.0°F8.9°C 58% 1.8 mph NNE2.9 kmh NNE 7.2 mph11.6 kmh 30.01 in1016.3 mb 0.00 in0.0 mm 0.00 in0.0 mm 0.04 in1.0 mm
01:31 PM 63.2°F17.3°C 47.6°F8.7°C 57% 3.2 mph N5.1 kmh N 7.8 mph12.6 kmh 30.02 in1016.6 mb 0.00 in0.0 mm 0.00 in0.0 mm 0.04 in1.0 mm
01:26 PM 63.7°F17.6°C 47.6°F8.7°C 56% 5.5 mph NW8.9 kmh NW 10.1 mph16.3 kmh 30.01 in1016.3 mb 0.00 in0.0 mm 0.00 in0.0 mm 0.04 in1.0 mm
01:21 PM 63.5°F17.5°C 48.0°F8.9°C 57% 7.8 mph NW12.6 kmh NW 10.1 mph16.3 kmh 30.00 in1015.9 mb 0.00 in0.0 mm 0.00 in0.0 mm 0.04 in1.0 mm
01:16 PM 63.4°F17.4°C 47.8°F8.8°C 57% 9.0 mph W14.5 kmh W 10.1 mph16.3 kmh 30.00 in1015.9 mb 0.00 in0.0 mm 0.00 in0.0 mm 0.04 in1.0 mm
01:11 PM 63.0°F17.2°C 48.0°F8.9°C 58% 5.4 mph NW8.7 kmh NW 7.6 mph12.2 kmh 30.00 in1015.9 mb 0.00 in0.0 mm 0.00 in0.0 mm 0.04 in1.0 mm
01:06 PM 62.8°F17.1°C 47.8°F8.8°C 58% 7.6 mph NNW12.2 kmh NNW 7.6 mph12.2 kmh 30.00 in1015.9 mb 0.00 in0.0 mm 0.00 in0.0 mm 0.04 in1.0 mm
01:01 PM 62.5°F16.9°C 47.4°F8.6°C 58% 7.6 mph WNW12.2 kmh WNW 10.3 mph16.6 kmh 30.01 in1016.3 mb 0.00 in0.0 mm 0.00 in0.0 mm 0.04 in1.0 mm
12:56 PM 62.3°F16.8°C 47.4°F8.6°C 58% 7.1 mph NW11.4 kmh NW 10.3 mph16.6 kmh 30.01 in1016.3 mb 0.00 in0.0 mm 0.00 in0.0 mm 0.04 in1.0 mm
12:51 PM 62.3°F16.8°C 47.4°F8.6°C 58% 7.6 mph NNW12.2 kmh NNW 7.8 mph12.6 kmh 30.02 in1016.6 mb 0.00 in0.0 mm 0.00 in0.0 mm 0.04 in1.0 mm
12:46 PM 62.3°F16.8°C 47.8°F8.8°C 59% 6.3 mph NW10.1 kmh NW 11.2 mph18.0 kmh 30.01 in1016.3 mb 0.00 in0.0 mm 0.00 in0.0 mm 0.04 in1.0 mm
12:41 PM 62.5°F16.9°C 47.4°F8.6°C 58% 9.4 mph NW15.1 kmh NW 11.2 mph18.0 kmh 30.01 in1016.3 mb 0.00 in0.0 mm 0.00 in0.0 mm 0.04 in1.0 mm
12:36 PM 62.1°F16.7°C 48.5°F9.2°C 61% 9.2 mph NW14.8 kmh NW 9.2 mph14.8 kmh 30.00 in1015.9 mb 0.00 in0.0 mm 0.00 in0.0 mm 0.04 in1.0 mm
12:31 PM 61.6°F16.4°C 48.9°F9.4°C 63% 6.5 mph NNW10.5 kmh NNW 13.0 mph20.9 kmh 30.00 in1015.9 mb 0.00 in0.0 mm 0.00 in0.0 mm 0.04 in1.0 mm
12:26 PM 61.0°F16.1°C 48.4°F9.1°C 63% 10.8 mph N17.4 kmh N 13.0 mph20.9 kmh 30.00 in1015.9 mb 0.00 in0.0 mm 0.00 in0.0 mm 0.04 in1.0 mm
12:21 PM 60.8°F16.0°C 48.3°F9.1°C 63% 7.4 mph ENE11.9 kmh ENE 9.2 mph14.8 kmh 30.00 in1015.9 mb 0.00 in0.0 mm 0.00 in0.0 mm 0.04 in1.0 mm
12:16 PM 61.0°F16.1°C 48.0°F8.9°C 62% 9.2 mph NW14.8 kmh NW 11.6 mph18.7 kmh 30.00 in1015.9 mb 0.00 in0.0 mm 0.00 in0.0 mm 0.04 in1.0 mm
12:11 PM 61.0°F16.1°C 48.0°F8.9°C 62% 9.3 mph W15.0 kmh W 11.6 mph18.7 kmh 30.00 in1015.9 mb 0.00 in0.0 mm 0.00 in0.0 mm 0.04 in1.0 mm
12:06 PM 61.2°F16.2°C 48.5°F9.2°C 63% 8.1 mph N13.0 kmh N 12.1 mph19.5 kmh 30.00 in1015.9 mb 0.00 in0.0 mm 0.00 in0.0 mm 0.04 in1.0 mm
12:01 PM 60.8°F16.0°C 48.3°F9.1°C 63% 10.5 mph WNW16.9 kmh WNW 12.1 mph19.5 kmh 30.00 in1015.9 mb 0.00 in0.0 mm 0.00 in0.0 mm 0.04 in1.0 mm
11:56 AM 61.0°F16.1°C 48.4°F9.1°C 63% 12.1 mph WNW19.5 kmh WNW 13.2 mph21.2 kmh 30.00 in1015.9 mb 0.00 in0.0 mm 0.00 in0.0 mm 0.04 in1.0 mm
11:51 AM 61.2°F16.2°C 48.5°F9.2°C 63% 11.5 mph NW18.5 kmh NW 13.2 mph21.2 kmh 30.00 in1015.9 mb 0.00 in0.0 mm 0.00 in0.0 mm 0.04 in1.0 mm
11:46 AM 61.0°F16.1°C 49.2°F9.6°C 65% 8.5 mph NW13.7 kmh NW 9.4 mph15.1 kmh 30.00 in1015.9 mb 0.00 in0.0 mm 0.00 in0.0 mm 0.04 in1.0 mm
11:41 AM 60.1°F15.6°C 48.3°F9.1°C 65% 9.2 mph 14.8 kmh 9.2 mph14.8 kmh 29.99 in1015.6 mb 0.00 in0.0 mm 0.00 in0.0 mm 0.04 in1.0 mm
11:36 AM 59.9°F15.5°C 47.7°F8.7°C 64% 8.7 mph NNW14.0 kmh NNW 8.7 mph14.0 kmh 29.99 in1015.6 mb 0.00 in0.0 mm 0.00 in0.0 mm 0.04 in1.0 mm
11:31 AM 59.6°F15.3°C 47.8°F8.8°C 65% 5.6 mph NE9.0 kmh NE 12.8 mph20.6 kmh 29.99 in1015.6 mb 0.00 in0.0 mm 0.00 in0.0 mm 0.04 in1.0 mm
11:26 AM 59.2°F15.1°C 47.4°F8.6°C 65% 7.3 mph N11.7 kmh N 12.8 mph20.6 kmh 29.99 in1015.6 mb 0.00 in0.0 mm 0.00 in0.0 mm 0.04 in1.0 mm
11:21 AM 59.0°F15.0°C 47.3°F8.5°C 65% 12.8 mph NNW20.6 kmh NNW 12.8 mph20.6 kmh 29.99 in1015.6 mb 0.00 in0.0 mm 0.00 in0.0 mm 0.04 in1.0 mm
11:16 AM 58.9°F14.9°C 47.9°F8.8°C 67% 5.2 mph W8.4 kmh W 9.2 mph14.8 kmh 29.99 in1015.6 mb 0.00 in0.0 mm 0.00 in0.0 mm 0.04 in1.0 mm
11:11 AM 58.5°F14.7°C 48.0°F8.9°C 68% 6.6 mph W10.6 kmh W 9.2 mph14.8 kmh 29.99 in1015.6 mb 0.00 in0.0 mm 0.00 in0.0 mm 0.04 in1.0 mm
11:06 AM 58.0°F14.4°C 47.9°F8.8°C 69% 9.2 mph W14.8 kmh W 9.4 mph15.1 kmh 29.99 in1015.6 mb 0.00 in0.0 mm 0.00 in0.0 mm 0.04 in1.0 mm
11:01 AM 58.0°F14.4°C 47.9°F8.8°C 69% 8.5 mph W13.7 kmh W 9.4 mph15.1 kmh 29.99 in1015.6 mb 0.00 in0.0 mm 0.00 in0.0 mm 0.04 in1.0 mm
10:56 AM 57.8°F14.3°C 47.7°F8.7°C 69% 5.0 mph NE8.0 kmh NE 9.4 mph15.1 kmh 29.99 in1015.6 mb 0.00 in0.0 mm 0.00 in0.0 mm 0.04 in1.0 mm
10:51 AM 57.2°F14.0°C 47.2°F8.4°C 69% 7.4 mph 11.9 kmh 8.7 mph14.0 kmh 29.99 in1015.6 mb 0.00 in0.0 mm 0.00 in0.0 mm 0.04 in1.0 mm
10:46 AM 57.2°F14.0°C 47.5°F8.6°C 70% 4.8 mph NW7.7 kmh NW 11.2 mph18.0 kmh 29.99 in1015.6 mb 0.00 in0.0 mm 0.00 in0.0 mm 0.04 in1.0 mm
10:41 AM 57.1°F13.9°C 47.7°F8.7°C 71% 7.9 mph WNW12.7 kmh WNW 12.1 mph19.5 kmh 29.98 in1015.2 mb 0.00 in0.0 mm 0.00 in0.0 mm 0.04 in1.0 mm
10:36 AM 56.7°F13.7°C 47.4°F8.6°C 71% 11.2 mph W18.0 kmh W 12.1 mph19.5 kmh 29.98 in1015.2 mb 0.00 in0.0 mm 0.00 in0.0 mm 0.04 in1.0 mm
10:31 AM 56.5°F13.6°C 48.0°F8.9°C 73% 6.3 mph NNW10.1 kmh NNW 8.9 mph14.3 kmh 29.99 in1015.6 mb 0.00 in0.0 mm 0.00 in0.0 mm 0.04 in1.0 mm
10:26 AM 56.5°F13.6°C 47.6°F8.7°C 72% 8.9 mph WNW14.3 kmh WNW 8.9 mph14.3 kmh 29.99 in1015.6 mb 0.00 in0.0 mm 0.00 in0.0 mm 0.04 in1.0 mm
10:21 AM 56.2°F13.4°C 47.6°F8.7°C 73% 3.6 mph NW5.8 kmh NW 12.5 mph20.1 kmh 29.99 in1015.6 mb 0.00 in0.0 mm 0.00 in0.0 mm 0.04 in1.0 mm
10:16 AM 55.6°F13.1°C 47.1°F8.4°C 73% 6.5 mph NW10.5 kmh NW 12.5 mph20.1 kmh 29.99 in1015.6 mb 0.00 in0.0 mm 0.00 in0.0 mm 0.04 in1.0 mm
10:11 AM 55.3°F12.9°C 46.7°F8.2°C 73% 7.8 mph NW12.6 kmh NW 11.0 mph17.7 kmh 29.99 in1015.6 mb 0.00 in0.0 mm 0.00 in0.0 mm 0.04 in1.0 mm
10:06 AM 55.1°F12.8°C 46.6°F8.1°C 73% 9.7 mph NW15.6 kmh NW 11.4 mph18.3 kmh 29.98 in1015.2 mb 0.00 in0.0 mm 0.00 in0.0 mm 0.04 in1.0 mm
10:01 AM 55.3°F12.9°C 46.7°F8.2°C 73% 7.0 mph NW11.3 kmh NW 11.4 mph18.3 kmh 29.98 in1015.2 mb 0.00 in0.0 mm 0.00 in0.0 mm 0.04 in1.0 mm
09:56 AM 55.3°F12.9°C 47.1°F8.4°C 74% 11.4 mph NNE18.3 kmh NNE 11.4 mph18.3 kmh 29.98 in1015.2 mb 0.00 in0.0 mm 0.00 in0.0 mm 0.04 in1.0 mm
09:51 AM 55.1°F12.8°C 46.9°F8.3°C 74% 11.4 mph WNW18.3 kmh WNW 12.1 mph19.5 kmh 29.98 in1015.2 mb 0.00 in0.0 mm 0.00 in0.0 mm 0.04 in1.0 mm
09:46 AM 55.1°F12.8°C 46.6°F8.1°C 73% 9.6 mph NW15.4 kmh NW 14.3 mph23.0 kmh 29.98 in1015.2 mb 0.00 in0.0 mm 0.00 in0.0 mm 0.04 in1.0 mm
09:41 AM 54.7°F12.6°C 47.3°F8.5°C 76% 8.1 mph SSW13.0 kmh SSW 14.3 mph23.0 kmh 29.98 in1015.2 mb 0.00 in0.0 mm 0.00 in0.0 mm 0.04 in1.0 mm
09:36 AM 54.5°F12.5°C 47.1°F8.4°C 76% 14.3 mph NW23.0 kmh NW 14.3 mph23.0 kmh 29.97 in1014.9 mb 0.00 in0.0 mm 0.00 in0.0 mm 0.04 in1.0 mm
09:31 AM 54.4°F12.4°C 47.0°F8.3°C 76% 4.0 mph 6.4 kmh 10.5 mph16.9 kmh 29.97 in1014.9 mb 0.00 in0.0 mm 0.00 in0.0 mm 0.04 in1.0 mm
09:26 AM 54.0°F12.2°C 46.6°F8.1°C 76% 6.8 mph NNW10.9 kmh NNW 10.5 mph16.9 kmh 29.97 in1014.9 mb 0.00 in0.0 mm 0.00 in0.0 mm 0.04 in1.0 mm
09:21 AM 53.8°F12.1°C 46.5°F8.1°C 76% 9.6 mph NW15.4 kmh NW 10.5 mph16.9 kmh 29.97 in1014.9 mb 0.00 in0.0 mm 0.00 in0.0 mm 0.04 in1.0 mm
09:16 AM 53.6°F12.0°C 46.6°F8.1°C 77% 6.1 mph WNW9.8 kmh WNW 8.5 mph13.7 kmh 29.96 in1014.6 mb 0.00 in0.0 mm 0.00 in0.0 mm 0.04 in1.0 mm
09:11 AM 53.5°F11.9°C 46.8°F8.2°C 78% 7.5 mph WNW12.1 kmh WNW 8.5 mph13.7 kmh 29.95 in1014.2 mb 0.00 in0.0 mm 0.00 in0.0 mm 0.04 in1.0 mm
09:06 AM 53.3°F11.8°C 46.6°F8.1°C 78% 8.1 mph NNW13.0 kmh NNW 8.7 mph14.0 kmh 29.94 in1013.9 mb 0.00 in0.0 mm 0.00 in0.0 mm 0.04 in1.0 mm
09:01 AM 52.9°F11.6°C 46.3°F7.9°C 78% 7.1 mph NW11.4 kmh NW 10.3 mph16.6 kmh 29.94 in1013.9 mb 0.00 in0.0 mm 0.00 in0.0 mm 0.04 in1.0 mm
08:56 AM 53.1°F11.7°C 46.4°F8.0°C 78% 7.8 mph NW12.6 kmh NW 14.1 mph22.7 kmh 29.93 in1013.5 mb 0.00 in0.0 mm 0.00 in0.0 mm 0.04 in1.0 mm
08:51 AM 53.3°F11.8°C 46.6°F8.1°C 78% 10.3 mph NNE16.6 kmh NNE 14.1 mph22.7 kmh 29.93 in1013.5 mb 0.00 in0.0 mm 0.00 in0.0 mm 0.04 in1.0 mm
08:46 AM 53.3°F11.8°C 46.6°F8.1°C 78% 10.5 mph WNW16.9 kmh WNW 18.1 mph29.1 kmh 29.93 in1013.5 mb 0.00 in0.0 mm 0.00 in0.0 mm 0.04 in1.0 mm
08:41 AM 53.5°F11.9°C 46.8°F8.2°C 78% 4.0 mph 6.4 kmh 18.1 mph29.1 kmh 29.92 in1013.2 mb 0.00 in0.0 mm 0.00 in0.0 mm 0.04 in1.0 mm
08:36 AM 53.5°F11.9°C 46.8°F8.2°C 78% 18.1 mph W29.1 kmh W 18.1 mph29.1 kmh 29.92 in1013.2 mb 0.00 in0.0 mm 0.00 in0.0 mm 0.04 in1.0 mm
08:31 AM 53.6°F12.0°C 47.0°F8.3°C 78% 8.3 mph 13.4 kmh 12.1 mph19.5 kmh 29.92 in1013.2 mb 0.00 in0.0 mm 0.00 in0.0 mm 0.04 in1.0 mm
08:26 AM 53.6°F12.0°C 47.3°F8.5°C 79% 8.5 mph 13.7 kmh 12.1 mph19.5 kmh 29.92 in1013.2 mb 0.00 in0.0 mm 0.00 in0.0 mm 0.04 in1.0 mm
08:21 AM 53.6°F12.0°C 47.7°F8.7°C 80% 10.2 mph NW16.4 kmh NW 12.1 mph19.5 kmh 29.92 in1013.2 mb 0.00 in0.0 mm 0.00 in0.0 mm 0.04 in1.0 mm
08:16 AM 53.6°F12.0°C 47.7°F8.7°C 80% 6.6 mph WNW10.6 kmh WNW 12.3 mph19.8 kmh 29.92 in1013.2 mb 0.00 in0.0 mm 0.00 in0.0 mm 0.04 in1.0 mm
08:11 AM 53.5°F11.9°C 47.5°F8.6°C 80% 8.9 mph W14.3 kmh W 15.9 mph25.6 kmh 29.89 in1012.2 mb 0.00 in0.0 mm 0.00 in0.0 mm 0.04 in1.0 mm
08:06 AM 53.3°F11.8°C 47.6°F8.7°C 81% 11.3 mph WSW18.2 kmh WSW 15.9 mph25.6 kmh 29.90 in1012.5 mb 0.00 in0.0 mm 0.00 in0.0 mm 0.04 in1.0 mm
08:01 AM 53.3°F11.8°C 47.6°F8.7°C 81% 15.9 mph NNW25.6 kmh NNW 15.9 mph25.6 kmh 29.89 in1012.2 mb 0.00 in0.0 mm 0.00 in0.0 mm 0.04 in1.0 mm
07:56 AM 53.3°F11.8°C 47.6°F8.7°C 81% 14.1 mph NNW22.7 kmh NNW 14.1 mph22.7 kmh 29.89 in1012.2 mb 0.00 in0.0 mm 0.00 in0.0 mm 0.04 in1.0 mm
07:51 AM 53.3°F11.8°C 47.6°F8.7°C 81% 10.3 mph NW16.6 kmh NW 10.3 mph16.6 kmh 29.90 in1012.5 mb 0.00 in0.0 mm 0.00 in0.0 mm 0.04 in1.0 mm
07:46 AM 53.3°F11.8°C 48.0°F8.9°C 82% 4.9 mph 7.9 kmh 4.9 mph7.9 kmh 29.91 in1012.9 mb 0.00 in0.0 mm 0.00 in0.0 mm 0.04 in1.0 mm
07:41 AM 53.3°F11.8°C 48.2°F9.0°C 83% 4.8 mph WNW7.7 kmh WNW 4.9 mph7.9 kmh 29.91 in1012.9 mb 0.00 in0.0 mm 0.00 in0.0 mm 0.04 in1.0 mm
07:36 AM 53.5°F11.9°C 48.4°F9.1°C 83% 4.0 mph NNW6.4 kmh NNW 5.4 mph8.7 kmh 29.90 in1012.5 mb 0.00 in0.0 mm 0.00 in0.0 mm 0.04 in1.0 mm
07:31 AM 53.5°F11.9°C 48.4°F9.1°C 83% 5.2 mph WNW8.4 kmh WNW 5.4 mph8.7 kmh 29.91 in1012.9 mb 0.00 in0.0 mm 0.00 in0.0 mm 0.04 in1.0 mm
07:26 AM 53.5°F11.9°C 48.4°F9.1°C 83% 4.7 mph WNW7.6 kmh WNW 12.8 mph20.6 kmh 29.91 in1012.9 mb 0.00 in0.0 mm 0.00 in0.0 mm 0.04 in1.0 mm
07:21 AM 53.5°F11.9°C 48.4°F9.1°C 83% 5.5 mph N8.9 kmh N 12.8 mph20.6 kmh 29.91 in1012.9 mb 0.00 in0.0 mm 0.00 in0.0 mm 0.04 in1.0 mm
07:16 AM 53.6°F12.0°C 48.6°F9.2°C 83% 6.5 mph NNW10.5 kmh NNW 12.8 mph20.6 kmh 29.91 in1012.9 mb 0.00 in0.0 mm 0.00 in0.0 mm 0.04 in1.0 mm
07:10 AM 53.6°F12.0°C 48.6°F9.2°C 83% 4.9 mph WNW7.9 kmh WNW 9.4 mph15.1 kmh 29.90 in1012.5 mb 0.00 in0.0 mm 0.00 in0.0 mm 0.04 in1.0 mm
07:06 AM 53.6°F12.0°C 48.6°F9.2°C 83% 9.4 mph WNW15.1 kmh WNW 9.4 mph15.1 kmh 29.90 in1012.5 mb 0.00 in0.0 mm 0.00 in0.0 mm 0.04 in1.0 mm
07:01 AM 53.8°F12.1°C 48.8°F9.3°C 83% 5.3 mph NW8.5 kmh NW 8.5 mph13.7 kmh 29.90 in1012.5 mb 0.00 in0.0 mm 0.00 in0.0 mm 0.04 in1.0 mm
06:55 AM 54.0°F12.2°C 49.0°F9.4°C 83% 7.7 mph W12.4 kmh W 8.5 mph13.7 kmh 29.90 in1012.5 mb 0.00 in0.0 mm 0.00 in0.0 mm 0.04 in1.0 mm
06:50 AM 54.2°F12.3°C 49.4°F9.7°C 84% 6.5 mph W10.5 kmh W 6.5 mph10.5 kmh 29.90 in1012.5 mb 0.00 in0.0 mm 0.00 in0.0 mm 0.04 in1.0 mm
06:45 AM 54.4°F12.4°C 49.3°F9.6°C 83% 4.3 mph WNW6.9 kmh WNW 12.8 mph20.6 kmh 29.89 in1012.2 mb 0.00 in0.0 mm 0.00 in0.0 mm 0.04 in1.0 mm
06:41 AM 54.5°F12.5°C 49.8°F9.9°C 84% 4.9 mph NW7.9 kmh NW 12.8 mph20.6 kmh 29.89 in1012.2 mb 0.00 in0.0 mm 0.00 in0.0 mm 0.04 in1.0 mm
06:36 AM 55.1°F12.8°C 50.0°F10.0°C 83% 12.8 mph W20.6 kmh W 12.8 mph20.6 kmh 29.88 in1011.9 mb 0.00 in0.0 mm 0.00 in0.0 mm 0.04 in1.0 mm
06:30 AM 55.8°F13.2°C 50.7°F10.4°C 83% 10.3 mph 16.6 kmh 10.3 mph16.6 kmh 29.88 in1011.9 mb 0.04 in1.0 mm 0.00 in0.0 mm 0.04 in1.0 mm
06:25 AM 56.3°F13.5°C 51.5°F10.8°C 84% 6.3 mph NW10.1 kmh NW 9.8 mph15.8 kmh 29.88 in1011.9 mb 0.04 in1.0 mm 0.00 in0.0 mm 0.04 in1.0 mm
06:20 AM 56.9°F13.8°C 52.0°F11.1°C 84% 5.4 mph 8.7 kmh 9.8 mph15.8 kmh 29.88 in1011.9 mb 0.04 in1.0 mm 0.00 in0.0 mm 0.04 in1.0 mm
06:15 AM 58.1°F14.5°C 54.3°F12.4°C 87% 9.8 mph W15.8 kmh W 9.8 mph15.8 kmh 29.88 in1011.9 mb 0.04 in1.0 mm 0.00 in0.0 mm 0.04 in1.0 mm
06:10 AM 58.7°F14.8°C 54.8°F12.7°C 87% 6.9 mph NNW11.1 kmh NNW 7.4 mph11.9 kmh 29.87 in1011.5 mb 0.04 in1.0 mm 0.00 in0.0 mm 0.04 in1.0 mm
06:05 AM 58.9°F14.9°C 55.0°F12.8°C 87% 3.5 mph NW5.6 kmh NW 9.8 mph15.8 kmh 29.87 in1011.5 mb 0.04 in1.0 mm 0.00 in0.0 mm 0.04 in1.0 mm
06:00 AM 59.4°F15.2°C 55.5°F13.1°C 87% 7.2 mph NW11.6 kmh NW 9.8 mph15.8 kmh 29.87 in1011.5 mb 0.04 in1.0 mm 0.00 in0.0 mm 0.04 in1.0 mm
05:55 AM 60.5°F15.8°C 56.6°F13.7°C 87% 9.8 mph WNW15.8 kmh WNW 9.8 mph15.8 kmh 29.87 in1011.5 mb 0.04 in1.0 mm 0.00 in0.0 mm 0.04 in1.0 mm
05:50 AM 61.2°F16.2°C 57.3°F14.1°C 87% 6.9 mph 11.1 kmh 8.3 mph13.4 kmh 29.86 in1011.2 mb 0.04 in1.0 mm 0.00 in0.0 mm 0.04 in1.0 mm
05:45 AM 61.9°F16.6°C 57.7°F14.3°C 86% 5.2 mph NW8.4 kmh NW 8.3 mph13.4 kmh 29.85 in1010.8 mb 0.04 in1.0 mm 0.00 in0.0 mm 0.04 in1.0 mm
05:40 AM 63.0°F17.2°C 58.8°F14.9°C 86% 5.9 mph N9.5 kmh N 8.3 mph13.4 kmh 29.85 in1010.8 mb 0.04 in1.0 mm 0.00 in0.0 mm 0.04 in1.0 mm
05:35 AM 65.9°F18.8°C 62.2°F16.8°C 88% 7.8 mph W12.6 kmh W 7.8 mph12.6 kmh 29.85 in1010.8 mb 0.04 in1.0 mm 0.48 in12.2 mm 0.04 in1.0 mm
05:30 AM 67.0°F19.4°C 63.3°F17.4°C 88% 6.7 mph W10.8 kmh W 6.7 mph10.8 kmh 29.84 in1010.5 mb 0.00 in0.0 mm 0.00 in0.0 mm 0.00 in0.0 mm
05:25 AM 67.9°F19.9°C 64.8°F18.2°C 90% 3.5 mph WNW5.6 kmh WNW 4.3 mph6.9 kmh 29.84 in1010.5 mb 0.00 in0.0 mm 0.00 in0.0 mm 0.00 in0.0 mm
05:20 AM 68.0°F20.0°C 65.0°F18.3°C 90% 3.8 mph W6.1 kmh W 4.3 mph6.9 kmh 29.83 in1010.2 mb 0.00 in0.0 mm 0.00 in0.0 mm 0.00 in0.0 mm
05:15 AM 68.0°F20.0°C 65.0°F18.3°C 90% 4.3 mph W6.9 kmh W 4.3 mph6.9 kmh 29.83 in1010.2 mb 0.00 in0.0 mm 0.00 in0.0 mm 0.00 in0.0 mm
05:10 AM 68.0°F20.0°C 65.3°F18.5°C 91% 2.5 mph WNW4.0 kmh WNW 2.7 mph4.3 kmh 29.82 in1009.8 mb 0.00 in0.0 mm 0.00 in0.0 mm 0.00 in0.0 mm
05:05 AM 68.0°F20.0°C 65.3°F18.5°C 91% 2.1 mph NW3.4 kmh NW 5.1 mph8.2 kmh 29.82 in1009.8 mb 0.00 in0.0 mm 0.00 in0.0 mm 0.00 in0.0 mm
05:00 AM 68.0°F20.0°C 65.3°F18.5°C 91% 2.7 mph WNW4.3 kmh WNW 5.1 mph8.2 kmh 29.82 in1009.8 mb 0.00 in0.0 mm 0.00 in0.0 mm 0.00 in0.0 mm
04:55 AM 68.0°F20.0°C 65.3°F18.5°C 91% 5.1 mph WNW8.2 kmh WNW 5.1 mph8.2 kmh 29.82 in1009.8 mb 0.00 in0.0 mm 0.00 in0.0 mm 0.00 in0.0 mm
04:50 AM 68.0°F20.0°C 65.0°F18.3°C 90% 2.4 mph NW3.9 kmh NW 2.5 mph4.0 kmh 29.81 in1009.5 mb 0.00 in0.0 mm 0.00 in0.0 mm 0.00 in0.0 mm
04:45 AM 68.0°F20.0°C 65.0°F18.3°C 90% 1.3 mph SW2.1 kmh SW 1.6 mph2.6 kmh 29.80 in1009.1 mb 0.00 in0.0 mm 0.00 in0.0 mm 0.00 in0.0 mm
04:40 AM 68.0°F20.0°C 65.0°F18.3°C 90% 1.1 mph WSW1.8 kmh WSW 1.6 mph2.6 kmh 29.79 in1008.8 mb 0.00 in0.0 mm 0.00 in0.0 mm 0.00 in0.0 mm
04:35 AM 68.0°F20.0°C 65.0°F18.3°C 90% 1.6 mph SW2.6 kmh SW 1.6 mph2.6 kmh 29.79 in1008.8 mb 0.00 in0.0 mm 0.00 in0.0 mm 0.00 in0.0 mm
04:30 AM 68.0°F20.0°C 65.0°F18.3°C 90% 1.3 mph S2.1 kmh S 1.6 mph2.6 kmh 29.79 in1008.8 mb 0.00 in0.0 mm 0.00 in0.0 mm 0.00 in0.0 mm
04:25 AM 68.0°F20.0°C 65.0°F18.3°C 90% 0.4 mph S0.6 kmh S 2.7 mph4.3 kmh 29.79 in1008.8 mb 0.00 in0.0 mm 0.00 in0.0 mm 0.00 in0.0 mm
04:20 AM 68.0°F20.0°C 65.0°F18.3°C 90% 1.1 mph SSE1.8 kmh SSE 2.7 mph4.3 kmh 29.79 in1008.8 mb 0.00 in0.0 mm 0.00 in0.0 mm 0.00 in0.0 mm
04:15 AM 68.0°F20.0°C 65.0°F18.3°C 90% 1.6 mph SE2.6 kmh SE 2.5 mph4.0 kmh 29.79 in1008.8 mb 0.00 in0.0 mm 0.00 in0.0 mm 0.00 in0.0 mm
04:10 AM 68.0°F20.0°C 65.0°F18.3°C 90% 2.0 mph SSE3.2 kmh SSE 2.5 mph4.0 kmh 29.79 in1008.8 mb 0.00 in0.0 mm 0.00 in0.0 mm 0.00 in0.0 mm
04:05 AM 68.0°F20.0°C 65.0°F18.3°C 90% 1.2 mph SSW1.9 kmh SSW 2.9 mph4.7 kmh 29.79 in1008.8 mb 0.00 in0.0 mm 0.00 in0.0 mm 0.00 in0.0 mm
04:00 AM 68.0°F20.0°C 64.6°F18.1°C 89% 2.0 mph SE3.2 kmh SE 2.9 mph4.7 kmh 29.80 in1009.1 mb 0.00 in0.0 mm 0.00 in0.0 mm 0.00 in0.0 mm
03:55 AM 68.0°F20.0°C 64.6°F18.1°C 89% 2.9 mph SSW4.7 kmh SSW 3.4 mph5.5 kmh 29.80 in1009.1 mb 0.00 in0.0 mm 0.00 in0.0 mm 0.00 in0.0 mm
03:50 AM 68.0°F20.0°C 64.6°F18.1°C 89% 2.3 mph S3.7 kmh S 3.4 mph5.5 kmh 29.80 in1009.1 mb 0.00 in0.0 mm 0.00 in0.0 mm 0.00 in0.0 mm
03:45 AM 68.0°F20.0°C 65.0°F18.3°C 90% 2.5 mph S4.0 kmh S 4.3 mph6.9 kmh 29.80 in1009.1 mb 0.00 in0.0 mm 0.00 in0.0 mm 0.00 in0.0 mm
03:40 AM 68.0°F20.0°C 64.6°F18.1°C 89% 3.1 mph S5.0 kmh S 4.3 mph6.9 kmh 29.79 in1008.8 mb 0.00 in0.0 mm 0.00 in0.0 mm 0.00 in0.0 mm
03:35 AM 68.0°F20.0°C 64.6°F18.1°C 89% 4.3 mph SE6.9 kmh SE 4.9 mph7.9 kmh 29.79 in1008.8 mb 0.00 in0.0 mm 0.00 in0.0 mm 0.00 in0.0 mm
03:30 AM 68.0°F20.0°C 64.6°F18.1°C 89% 4.8 mph SE7.7 kmh SE 4.9 mph7.9 kmh 29.80 in1009.1 mb 0.00 in0.0 mm 0.00 in0.0 mm 0.00 in0.0 mm
03:25 AM 68.0°F20.0°C 64.6°F18.1°C 89% 2.5 mph SSW4.0 kmh SSW 3.4 mph5.5 kmh 29.80 in1009.1 mb 0.00 in0.0 mm 0.00 in0.0 mm 0.00 in0.0 mm
03:20 AM 68.0°F20.0°C 64.6°F18.1°C 89% 3.4 mph SE5.5 kmh SE 3.4 mph5.5 kmh 29.81 in1009.5 mb 0.00 in0.0 mm 0.00 in0.0 mm 0.00 in0.0 mm
03:15 AM 68.0°F20.0°C 64.4°F18.0°C 88% 1.7 mph S2.7 kmh S 4.0 mph6.4 kmh 29.81 in1009.5 mb 0.00 in0.0 mm 0.00 in0.0 mm 0.00 in0.0 mm
03:10 AM 68.0°F20.0°C 64.4°F18.0°C 88% 2.9 mph SSE4.7 kmh SSE 4.0 mph6.4 kmh 29.81 in1009.5 mb 0.00 in0.0 mm 0.00 in0.0 mm 0.00 in0.0 mm
03:05 AM 68.0°F20.0°C 64.4°F18.0°C 88% 4.0 mph 6.4 kmh 4.7 mph7.6 kmh 29.81 in1009.5 mb 0.00 in0.0 mm 0.00 in0.0 mm 0.00 in0.0 mm
03:00 AM 68.2°F20.1°C 64.5°F18.1°C 88% 2.7 mph S4.3 kmh S 5.4 mph8.7 kmh 29.81 in1009.5 mb 0.00 in0.0 mm 0.00 in0.0 mm 0.00 in0.0 mm
02:55 AM 68.2°F20.1°C 64.5°F18.1°C 88% 5.2 mph ESE8.4 kmh ESE 5.4 mph8.7 kmh 29.82 in1009.8 mb 0.00 in0.0 mm 0.00 in0.0 mm 0.00 in0.0 mm
02:50 AM 68.4°F20.2°C 64.7°F18.2°C 88% 3.6 mph SSE5.8 kmh SSE 3.6 mph5.8 kmh 29.82 in1009.8 mb 0.00 in0.0 mm 0.00 in0.0 mm 0.00 in0.0 mm
02:45 AM 68.4°F20.2°C 64.7°F18.2°C 88% 1.8 mph S2.9 kmh S 2.0 mph3.2 kmh 29.83 in1010.2 mb 0.00 in0.0 mm 0.00 in0.0 mm 0.00 in0.0 mm
02:40 AM 68.4°F20.2°C 64.7°F18.2°C 88% 1.9 mph S3.1 kmh S 5.1 mph8.2 kmh 29.83 in1010.2 mb 0.00 in0.0 mm 0.00 in0.0 mm 0.00 in0.0 mm
02:35 AM 68.4°F20.2°C 64.7°F18.2°C 88% 5.1 mph SE8.2 kmh SE 5.1 mph8.2 kmh 29.83 in1010.2 mb 0.00 in0.0 mm 0.00 in0.0 mm 0.00 in0.0 mm
02:30 AM 68.4°F20.2°C 64.4°F18.0°C 87% 4.9 mph ESE7.9 kmh ESE 5.1 mph8.2 kmh 29.83 in1010.2 mb 0.00 in0.0 mm 0.00 in0.0 mm 0.00 in0.0 mm
02:25 AM 68.2°F20.1°C 64.2°F17.9°C 87% 4.8 mph ESE7.7 kmh ESE 5.1 mph8.2 kmh 29.83 in1010.2 mb 0.00 in0.0 mm 0.00 in0.0 mm 0.00 in0.0 mm
02:20 AM 68.2°F20.1°C 64.2°F17.9°C 87% 1.7 mph SE2.7 kmh SE 4.0 mph6.4 kmh 29.83 in1010.2 mb 0.00 in0.0 mm 0.00 in0.0 mm 0.00 in0.0 mm
02:15 AM 68.4°F20.2°C 64.4°F18.0°C 87% 4.0 mph ESE6.4 kmh ESE 4.3 mph6.9 kmh 29.83 in1010.2 mb 0.00 in0.0 mm 0.00 in0.0 mm 0.00 in0.0 mm
02:10 AM 68.4°F20.2°C 64.0°F17.8°C 86% 3.4 mph SSE5.5 kmh SSE 4.3 mph6.9 kmh 29.82 in1009.8 mb 0.00 in0.0 mm 0.00 in0.0 mm 0.00 in0.0 mm
02:05 AM 68.4°F20.2°C 64.0°F17.8°C 86% 4.3 mph SE6.9 kmh SE 4.3 mph6.9 kmh 29.83 in1010.2 mb 0.00 in0.0 mm 0.00 in0.0 mm 0.00 in0.0 mm
02:00 AM 68.4°F20.2°C 64.0°F17.8°C 86% 2.3 mph SE3.7 kmh SE 4.3 mph6.9 kmh 29.83 in1010.2 mb 0.00 in0.0 mm 0.00 in0.0 mm 0.00 in0.0 mm
01:55 AM 68.4°F20.2°C 64.0°F17.8°C 86% 1.1 mph E1.8 kmh E 2.2 mph3.5 kmh 29.84 in1010.5 mb 0.00 in0.0 mm 0.00 in0.0 mm 0.00 in0.0 mm
01:50 AM 68.4°F20.2°C 64.0°F17.8°C 86% 2.1 mph SE3.4 kmh SE 2.2 mph3.5 kmh 29.83 in1010.2 mb 0.00 in0.0 mm 0.00 in0.0 mm 0.00 in0.0 mm
01:45 AM 68.4°F20.2°C 64.0°F17.8°C 86% 1.2 mph SE1.9 kmh SE 2.0 mph3.2 kmh 29.84 in1010.5 mb 0.00 in0.0 mm 0.00 in0.0 mm 0.00 in0.0 mm
01:40 AM 68.4°F20.2°C 64.0°F17.8°C 86% 2.0 mph ESE3.2 kmh ESE 2.0 mph3.2 kmh 29.84 in1010.5 mb 0.00 in0.0 mm 0.00 in0.0 mm 0.00 in0.0 mm
01:35 AM 68.4°F20.2°C 64.0°F17.8°C 86% 1.3 mph ESE2.1 kmh ESE 1.8 mph2.9 kmh 29.83 in1010.2 mb 0.00 in0.0 mm 0.00 in0.0 mm 0.00 in0.0 mm
01:30 AM 68.4°F20.2°C 63.7°F17.6°C 85% 1.4 mph ESE2.3 kmh ESE 2.0 mph3.2 kmh 29.84 in1010.5 mb 0.00 in0.0 mm 0.00 in0.0 mm 0.00 in0.0 mm
01:25 AM 68.4°F20.2°C 63.7°F17.6°C 85% 1.9 mph E3.1 kmh E 2.5 mph4.0 kmh 29.83 in1010.2 mb 0.00 in0.0 mm 0.00 in0.0 mm 0.00 in0.0 mm
01:20 AM 68.4°F20.2°C 63.7°F17.6°C 85% 0.9 mph SSE1.4 kmh SSE 2.5 mph4.0 kmh 29.84 in1010.5 mb 0.00 in0.0 mm 0.00 in0.0 mm 0.00 in0.0 mm
01:15 AM 68.4°F20.2°C 63.7°F17.6°C 85% 2.3 mph ESE3.7 kmh ESE 2.5 mph4.0 kmh 29.84 in1010.5 mb 0.00 in0.0 mm 0.00 in0.0 mm 0.00 in0.0 mm
01:10 AM 68.4°F20.2°C 63.7°F17.6°C 85% 1.5 mph E2.4 kmh E 2.5 mph4.0 kmh 29.83 in1010.2 mb 0.00 in0.0 mm 0.00 in0.0 mm 0.00 in0.0 mm
01:05 AM 68.4°F20.2°C 63.4°F17.4°C 84% 1.8 mph ESE2.9 kmh ESE 4.7 mph7.6 kmh 29.83 in1010.2 mb 0.00 in0.0 mm 0.00 in0.0 mm 0.00 in0.0 mm
01:00 AM 68.4°F20.2°C 63.4°F17.4°C 84% 2.5 mph E4.0 kmh E 5.6 mph9.0 kmh 29.83 in1010.2 mb 0.00 in0.0 mm 0.00 in0.0 mm 0.00 in0.0 mm
12:55 AM 68.4°F20.2°C 63.4°F17.4°C 84% 4.2 mph SE6.8 kmh SE 5.6 mph9.0 kmh 29.82 in1009.8 mb 0.00 in0.0 mm 0.00 in0.0 mm 0.00 in0.0 mm
12:50 AM 68.4°F20.2°C 63.4°F17.4°C 84% 5.6 mph ESE9.0 kmh ESE 5.6 mph9.0 kmh 29.83 in1010.2 mb 0.00 in0.0 mm 0.00 in0.0 mm 0.00 in0.0 mm
12:45 AM 68.4°F20.2°C 63.4°F17.4°C 84% 1.1 mph SE1.8 kmh SE 4.5 mph7.2 kmh 29.83 in1010.2 mb 0.00 in0.0 mm 0.00 in0.0 mm 0.00 in0.0 mm
12:40 AM 68.4°F20.2°C 63.4°F17.4°C 84% 1.8 mph SE2.9 kmh SE 4.5 mph7.2 kmh 29.83 in1010.2 mb 0.00 in0.0 mm 0.00 in0.0 mm 0.00 in0.0 mm
12:35 AM 68.4°F20.2°C 63.4°F17.4°C 84% 2.6 mph E4.2 kmh E 4.5 mph7.2 kmh 29.83 in1010.2 mb 0.00 in0.0 mm 0.00 in0.0 mm 0.00 in0.0 mm
12:30 AM 68.4°F20.2°C 63.4°F17.4°C 84% 3.1 mph ESE5.0 kmh ESE 4.5 mph7.2 kmh 29.83 in1010.2 mb 0.00 in0.0 mm 0.00 in0.0 mm 0.00 in0.0 mm
12:25 AM 68.4°F20.2°C 63.1°F17.3°C 83% 4.5 mph NNE7.2 kmh NNE 4.5 mph7.2 kmh 29.83 in1010.2 mb 0.00 in0.0 mm 0.00 in0.0 mm 0.00 in0.0 mm
12:20 AM 68.4°F20.2°C 63.1°F17.3°C 83% 2.5 mph ESE4.0 kmh ESE 4.3 mph6.9 kmh 29.83 in1010.2 mb 0.00 in0.0 mm 0.00 in0.0 mm 0.00 in0.0 mm
12:15 AM 68.4°F20.2°C 63.1°F17.3°C 83% 2.7 mph ESE4.3 kmh ESE 4.3 mph6.9 kmh 29.83 in1010.2 mb 0.00 in0.0 mm 0.00 in0.0 mm 0.00 in0.0 mm
12:10 AM 68.4°F20.2°C 62.7°F17.1°C 82% 4.3 mph ENE6.9 kmh ENE 4.3 mph6.9 kmh 29.83 in1010.2 mb 0.00 in0.0 mm 0.00 in0.0 mm 0.00 in0.0 mm
12:05 AM 68.4°F20.2°C 62.7°F17.1°C 82% 3.4 mph SE5.5 kmh SE 3.4 mph5.5 kmh 29.83 in1010.2 mb 0.00 in0.0 mm 0.00 in0.0 mm 0.00 in0.0 mm
12:00 AM 68.2°F20.1°C 62.6°F17.0°C 82% 2.8 mph ENE4.5 kmh ENE 3.6 mph5.8 kmh 29.84 in1010.5 mb 0.00 in0.0 mm 0.00 in0.0 mm 0.00 in0.0 mm